Time;durP1;ratioP1;P1;durP2;ratioP2;P2;SDS_P1;SDS_P2;PMS_P1;PMS_P2;Temp;Humidity;BMP_temperature;BMP_pressure;BME280_temperature;BME280_humidity;BME280_pressure;Samples;Min_cycle;Max_cycle;Signal;HPM_P1;HPM_P2
2022/01/14 00:00:28;;;;;;;;;;;3.40;58.50;;;;;;5094735;28;19908;-72
2022/01/14 00:03:07;;;;;;;;;;;3.40;58.50;;;;;;5094836;28;20310;-72
2022/01/14 00:05:44;;;;;;;;;;;3.40;58.50;;;;;;5094576;28;19908;-72
2022/01/14 00:08:23;;;;;;;;;;;3.40;58.50;;;;;;5076870;28;19912;-73
2022/01/14 00:11:02;;;;;;;;;;;3.40;58.40;;;;;;5074263;28;20283;-73
2022/01/14 00:16:22;;;;;;;;;;;3.40;58.50;;;;;;5074504;28;19949;-72
2022/01/14 00:19:05;;;;;;;;;;;3.40;58.50;;;;;;5058181;28;19980;-73
2022/01/14 00:21:41;;;;;;;;;;;3.40;58.50;;;;;;5035340;28;19912;-72
2022/01/14 00:24:27;;;;;;;;;;;3.40;58.40;;;;;;5036396;28;19912;-73
2022/01/14 00:33:40;;;;;;;;;;;3.30;58.50;;;;;;5054168;28;19970;-73
2022/01/14 00:35:47;;;;;;;;;;;3.30;58.50;;;;;;5039017;28;19959;-75
2022/01/14 00:38:21;;;;;;;;;;;3.30;58.60;;;;;;5032962;28;19905;-72
2022/01/14 00:41:00;;;;;;;;;;;3.30;58.60;;;;;;5033634;28;20379;-72
2022/01/14 00:43:36;;;;;;;;;;;3.30;58.60;;;;;;5037646;28;19992;-73
2022/01/14 00:46:16;;;;;;;;;;;3.30;58.60;;;;;;5053827;28;19952;-72
2022/01/14 00:48:56;;;;;;;;;;;3.30;58.60;;;;;;5069638;28;19959;-72
2022/01/14 00:51:35;;;;;;;;;;;3.30;58.60;;;;;;5053444;28;19912;-72
2022/01/14 00:54:14;;;;;;;;;;;3.30;58.70;;;;;;5034702;28;19905;-72
2022/01/14 00:59:14;;;;;;;;;;;3.30;58.70;;;;;;5034814;28;20278;-73
2022/01/14 00:59:48;;;;;;;;;;;3.30;58.70;;;;;;5048547;28;19943;-72
2022/01/14 01:02:25;;;;;;;;;;;3.30;58.70;;;;;;5034637;28;20006;-72
2022/01/14 01:04:59;;;;;;;;;;;3.30;58.70;;;;;;5052932;28;19909;-72
2022/01/14 01:07:37;;;;;;;;;;;3.20;58.70;;;;;;5035784;28;19960;-72
2022/01/14 01:10:17;;;;;;;;;;;3.30;58.70;;;;;;5015012;28;19909;-71
2022/01/14 01:12:59;;;;;;;;;;;3.20;58.70;;;;;;5033140;28;19909;-72
2022/01/14 01:15:31;;;;;;;;;;;3.20;58.70;;;;;;5031900;28;20014;-72
2022/01/14 01:18:10;;;;;;;;;;;3.20;59.30;;;;;;5040438;28;19935;-72
2022/01/14 01:20:50;;;;;;;;;;;3.20;58.70;;;;;;5054142;28;19917;-75
2022/01/14 01:23:29;;;;;;;;;;;3.20;58.80;;;;;;5054339;28;19998;-72
2022/01/14 01:26:27;;;;;;;;;;;3.20;58.90;;;;;;5072727;28;19920;-71
2022/01/14 01:29:04;;;;;;;;;;;3.20;59.00;;;;;;5073059;28;19919;-72
2022/01/14 01:31:35;;;;;;;;;;;3.20;59.00;;;;;;5054915;28;19905;-72
2022/01/14 01:34:17;;;;;;;;;;;3.20;59.00;;;;;;5055071;28;20252;-76
2022/01/14 01:36:57;;;;;;;;;;;3.20;59.00;;;;;;5054716;28;20366;-72
2022/01/14 01:39:37;;;;;;;;;;;3.20;59.10;;;;;;5054239;28;19991;-72
2022/01/14 01:42:17;;;;;;;;;;;3.20;59.10;;;;;;5072506;28;19904;-72
2022/01/14 01:44:58;;;;;;;;;;;3.30;59.10;;;;;;5072435;28;19962;-72
2022/01/14 01:47:38;;;;;;;;;;;3.30;59.10;;;;;;5054747;28;19919;-73
2022/01/14 01:50:17;;;;;;;;;;;3.30;59.10;;;;;;5072844;28;19904;-72
2022/01/14 01:52:56;;;;;;;;;;;3.30;59.10;;;;;;5072451;28;19908;-72
2022/01/14 01:55:35;;;;;;;;;;;3.30;59.10;;;;;;5072505;28;20279;-72
2022/01/14 01:58:07;;;;;;;;;;;3.30;59.00;;;;;;5053677;28;19909;-72
2022/01/14 02:00:46;;;;;;;;;;;3.30;59.00;;;;;;5054675;28;19905;-77
2022/01/14 02:03:26;;;;;;;;;;;3.30;59.00;;;;;;5072382;28;19954;-72
2022/01/14 02:06:05;;;;;;;;;;;3.30;59.00;;;;;;5053610;28;20376;-72
2022/01/14 02:08:44;;;;;;;;;;;3.30;59.00;;;;;;5072317;28;20372;-72
2022/01/14 02:11:24;;;;;;;;;;;3.30;59.00;;;;;;5072366;28;20356;-73
2022/01/14 02:13:58;;;;;;;;;;;3.30;59.00;;;;;;5057541;28;19911;-74
2022/01/14 02:16:58;;;;;;;;;;;3.30;59.00;;;;;;5058462;28;19908;-72
2022/01/14 02:19:35;;;;;;;;;;;3.30;59.10;;;;;;5075804;28;20289;-72
2022/01/14 02:22:14;;;;;;;;;;;3.30;59.10;;;;;;5092437;28;20236;-72
2022/01/14 02:24:58;;;;;;;;;;;3.30;59.00;;;;;;5076504;28;19904;-72
2022/01/14 02:27:29;;;;;;;;;;;3.30;59.10;;;;;;5076331;28;19913;-72
2022/01/14 02:30:09;;;;;;;;;;;3.30;59.10;;;;;;5091966;28;19908;-71
2022/01/14 02:32:49;;;;;;;;;;;3.30;59.10;;;;;;5076669;28;20419;-76
2022/01/14 02:35:28;;;;;;;;;;;3.30;59.10;;;;;;5076366;28;20372;-72
2022/01/14 02:38:02;;;;;;;;;;;3.20;59.20;;;;;;5063458;28;19908;-72
2022/01/14 02:40:32;;;;;;;;;;;3.20;59.20;;;;;;5056527;28;19905;-72
2022/01/14 02:43:13;;;;;;;;;;;3.20;59.30;;;;;;5054830;28;20411;-72
2022/01/14 02:45:55;;;;;;;;;;;3.20;59.40;;;;;;5057232;28;19908;-72
2022/01/14 02:48:32;;;;;;;;;;;3.20;59.40;;;;;;5057816;28;19920;-72
2022/01/14 02:51:13;;;;;;;;;;;3.20;59.40;;;;;;5076025;28;19951;-72
2022/01/14 02:54:30;;;;;;;;;;;3.20;59.50;;;;;;5075947;28;19905;-72
2022/01/14 02:56:46;;;;;;;;;;;3.30;59.60;;;;;;5072079;28;19966;-72
2022/01/14 02:59:27;;;;;;;;;;;3.30;59.70;;;;;;5075895;28;19935;-73
2022/01/14 03:02:09;;;;;;;;;;;3.30;59.70;;;;;;5075755;28;19962;-71
2022/01/14 03:04:49;;;;;;;;;;;3.40;59.80;;;;;;5076046;28;19905;-72
2022/01/14 03:07:29;;;;;;;;;;;3.40;59.70;;;;;;5056882;28;19913;-73
2022/01/14 03:10:08;;;;;;;;;;;3.50;59.70;;;;;;5075729;28;19913;-76
2022/01/14 03:12:40;;;;;;;;;;;3.50;59.60;;;;;;5056748;28;20348;-72
2022/01/14 03:15:20;;;;;;;;;;;3.60;59.60;;;;;;5057857;28;19991;-72
2022/01/14 03:17:59;;;;;;;;;;;3.60;59.60;;;;;;5075459;28;20448;-72
2022/01/14 03:20:48;;;;;;;;;;;3.60;59.50;;;;;;5091738;28;19908;-71
2022/01/14 03:23:26;;;;;;;;;;;3.60;59.50;;;;;;5057472;28;19960;-72
2022/01/14 03:26:05;;;;;;;;;;;3.70;59.50;;;;;;5075389;28;20008;-72
2022/01/14 03:28:45;;;;;;;;;;;3.70;59.50;;;;;;5075106;28;19915;-72
2022/01/14 03:31:24;;;;;;;;;;;3.70;59.40;;;;;;5075095;28;19926;-72
2022/01/14 03:34:03;;;;;;;;;;;3.70;59.40;;;;;;5074905;28;20388;-72
2022/01/14 03:36:43;;;;;;;;;;;3.70;59.40;;;;;;5075059;28;19987;-72
2022/01/14 03:39:22;;;;;;;;;;;3.70;59.30;;;;;;5036307;28;20257;-75
2022/01/14 03:41:53;;;;;;;;;;;3.80;59.40;;;;;;5054793;28;20341;-73
2022/01/14 03:44:32;;;;;;;;;;;3.80;59.20;;;;;;5062694;28;19908;-72
2022/01/14 03:47:12;;;;;;;;;;;3.80;59.20;;;;;;5074778;28;19984;-72
2022/01/14 03:49:51;;;;;;;;;;;3.80;59.10;;;;;;5074693;28;19913;-75
2022/01/14 03:52:30;;;;;;;;;;;3.80;59.10;;;;;;5074698;28;20049;-73
2022/01/14 03:55:10;;;;;;;;;;;3.70;59.10;;;;;;5055918;28;20300;-73
2022/01/14 03:57:49;;;;;;;;;;;3.70;59.10;;;;;;5074457;28;19999;-72
2022/01/14 04:00:29;;;;;;;;;;;3.70;59.10;;;;;;5074732;28;19905;-77
2022/01/14 04:02:57;;;;;;;;;;;3.60;59.00;;;;;;5074297;28;19962;-72
2022/01/14 04:05:37;;;;;;;;;;;3.60;59.10;;;;;;5056330;28;20367;-73
2022/01/14 04:08:16;;;;;;;;;;;3.50;59.20;;;;;;5090489;28;19916;-72
2022/01/14 04:10:56;;;;;;;;;;;3.40;59.20;;;;;;5074378;28;19904;-74
2022/01/14 04:13:45;;;;;;;;;;;3.40;59.40;;;;;;5074106;28;19915;-72
2022/01/14 04:16:25;;;;;;;;;;;3.30;59.40;;;;;;5073947;28;19995;-72
2022/01/14 04:19:05;;;;;;;;;;;3.30;59.50;;;;;;5074079;28;19982;-72
2022/01/14 04:21:36;;;;;;;;;;;3.30;59.50;;;;;;5055115;28;20106;-73
2022/01/14 04:24:07;;;;;;;;;;;3.20;59.50;;;;;;5090053;28;20251;-72
2022/01/14 04:26:46;;;;;;;;;;;3.20;59.60;;;;;;5073828;28;19960;-72
2022/01/14 04:29:26;;;;;;;;;;;3.20;59.70;;;;;;5055002;28;19913;-72
2022/01/14 04:32:03;;;;;;;;;;;3.20;59.80;;;;;;5073374;28;20384;-72
2022/01/14 04:34:42;;;;;;;;;;;3.20;59.90;;;;;;5073134;28;19913;-71
2022/01/14 04:37:21;;;;;;;;;;;3.10;60.00;;;;;;5067075;28;19904;-72
2022/01/14 04:40:01;;;;;;;;;;;3.10;60.10;;;;;;5054523;28;19909;-72
2022/01/14 04:42:41;;;;;;;;;;;3.10;60.20;;;;;;5073404;28;19911;-72
2022/01/14 04:48:15;;;;;;;;;;;3.20;60.30;;;;;;5035339;28;20283;-72
2022/01/14 04:50:54;;;;;;;;;;;3.20;60.20;;;;;;5073347;28;19914;-75
2022/01/14 04:53:34;;;;;;;;;;;3.20;60.10;;;;;;5054544;28;20394;-72
2022/01/14 04:56:13;;;;;;;;;;;3.20;60.80;;;;;;5073049;28;20363;-72
2022/01/14 04:58:52;;;;;;;;;;;3.30;60.00;;;;;;5073140;28;19908;-74
2022/01/14 05:01:32;;;;;;;;;;;3.20;59.90;;;;;;5054594;28;20288;-73
2022/01/14 05:04:11;;;;;;;;;;;3.20;59.90;;;;;;5054548;28;20103;-72
2022/01/14 05:06:56;;;;;;;;;;;3.20;59.90;;;;;;5054468;28;20006;-73
2022/01/14 05:09:37;;;;;;;;;;;3.20;59.90;;;;;;5073642;28;19970;-72
2022/01/14 05:12:16;;;;;;;;;;;3.20;60.00;;;;;;5073150;28;19991;-72
2022/01/14 05:14:55;;;;;;;;;;;3.10;59.90;;;;;;5073011;28;19905;-73
2022/01/14 05:17:35;;;;;;;;;;;3.10;59.90;;;;;;5072387;28;19912;-72
2022/01/14 05:20:14;;;;;;;;;;;3.10;60.00;;;;;;5072594;28;19913;-72
2022/01/14 05:22:53;;;;;;;;;;;3.10;59.90;;;;;;5072517;28;19905;-72
2022/01/14 05:25:33;;;;;;;;;;;3.10;59.90;;;;;;5072479;28;19913;-72
2022/01/14 05:28:04;;;;;;;;;;;3.10;60.00;;;;;;5072556;28;19909;-72
2022/01/14 05:30:35;;;;;;;;;;;3.10;60.00;;;;;;5054720;28;19909;-72
2022/01/14 05:33:14;;;;;;;;;;;3.10;59.90;;;;;;5054829;28;20340;-73
2022/01/14 05:35:54;;;;;;;;;;;3.00;59.90;;;;;;5072645;28;19908;-72
2022/01/14 05:38:28;;;;;;;;;;;3.00;59.90;;;;;;5088876;28;19904;-75
2022/01/14 05:41:07;;;;;;;;;;;3.00;59.90;;;;;;5072459;28;20002;-73
2022/01/14 05:43:46;;;;;;;;;;;3.00;59.80;;;;;;5053558;28;20396;-73
2022/01/14 05:46:26;;;;;;;;;;;3.00;59.90;;;;;;5071389;28;20352;-72
2022/01/14 05:49:05;;;;;;;;;;;3.00;59.90;;;;;;5072090;28;19912;-74
2022/01/14 05:51:44;;;;;;;;;;;3.00;59.80;;;;;;5072442;28;19991;-72
2022/01/14 05:54:24;;;;;;;;;;;3.00;59.90;;;;;;5072362;28;19935;-72
2022/01/14 05:57:03;;;;;;;;;;;3.00;59.90;;;;;;5072547;28;19904;-73
2022/01/14 05:59:34;;;;;;;;;;;3.00;59.90;;;;;;5053157;28;20011;-76
2022/01/14 06:02:03;;;;;;;;;;;3.00;59.90;;;;;;5088013;28;20332;-72
2022/01/14 06:04:42;;;;;;;;;;;3.00;59.90;;;;;;5087838;28;19905;-72
2022/01/14 06:07:19;;;;;;;;;;;3.00;60.00;;;;;;5072273;28;19913;-72
2022/01/14 06:09:58;;;;;;;;;;;3.00;60.00;;;;;;5072754;28;19991;-72
2022/01/14 06:12:37;;;;;;;;;;;2.90;59.90;;;;;;5072443;28;19963;-73
2022/01/14 06:15:17;;;;;;;;;;;2.90;59.90;;;;;;5071900;28;19916;-72
2022/01/14 06:17:50;;;;;;;;;;;2.90;59.90;;;;;;5072035;28;19916;-72
2022/01/14 06:20:30;;;;;;;;;;;2.90;60.00;;;;;;5034132;28;20019;-72
2022/01/14 06:23:09;;;;;;;;;;;2.90;60.00;;;;;;5051842;28;19908;-72
2022/01/14 06:25:49;;;;;;;;;;;2.90;60.00;;;;;;5033292;28;19909;-72
2022/01/14 06:28:28;;;;;;;;;;;2.90;60.00;;;;;;5033172;28;20393;-72
2022/01/14 06:31:08;;;;;;;;;;;2.90;60.00;;;;;;5040763;28;19911;-74
2022/01/14 06:33:48;;;;;;;;;;;2.90;60.00;;;;;;5053394;28;19917;-75
2022/01/14 06:36:27;;;;;;;;;;;2.90;60.10;;;;;;5053338;28;20265;-72
2022/01/14 06:39:07;;;;;;;;;;;2.90;60.10;;;;;;5033419;28;19906;-72
2022/01/14 06:41:38;;;;;;;;;;;2.90;60.20;;;;;;5087616;28;19938;-72
2022/01/14 06:44:18;;;;;;;;;;;2.90;60.10;;;;;;5087362;28;20319;-75
2022/01/14 06:46:57;;;;;;;;;;;2.90;60.20;;;;;;5072182;28;20244;-74
2022/01/14 06:49:36;;;;;;;;;;;2.90;60.30;;;;;;5072492;28;19932;-72
2022/01/14 06:52:16;;;;;;;;;;;2.80;60.20;;;;;;5053243;28;19979;-71
2022/01/14 06:54:55;;;;;;;;;;;2.90;60.30;;;;;;5052960;28;20420;-72
2022/01/14 06:57:35;;;;;;;;;;;2.90;60.40;;;;;;5072618;28;20308;-72
2022/01/14 07:00:09;;;;;;;;;;;2.90;60.40;;;;;;5075419;28;20241;-73
2022/01/14 07:02:48;;;;;;;;;;;2.90;60.50;;;;;;5075867;28;20333;-72
2022/01/14 07:05:28;;;;;;;;;;;2.90;60.60;;;;;;5075654;28;19915;-73
2022/01/14 07:08:07;;;;;;;;;;;2.90;60.60;;;;;;5075861;28;19912;-75
2022/01/14 07:10:46;;;;;;;;;;;2.90;60.70;;;;;;5055222;28;19920;-73
2022/01/14 07:13:26;;;;;;;;;;;2.90;60.70;;;;;;5036648;28;19968;-72
2022/01/14 07:15:57;;;;;;;;;;;2.90;60.70;;;;;;5037460;28;19904;-73
2022/01/14 07:18:37;;;;;;;;;;;2.90;60.70;;;;;;5070355;28;20341;-71
2022/01/14 07:21:11;;;;;;;;;;;2.90;60.70;;;;;;5061443;28;19916;-72
2022/01/14 07:23:50;;;;;;;;;;;2.90;60.70;;;;;;5090499;28;19913;-72
2022/01/14 07:26:30;;;;;;;;;;;2.90;60.80;;;;;;5075098;28;19935;-73
2022/01/14 07:29:09;;;;;;;;;;;3.00;60.90;;;;;;5074818;28;19919;-72
2022/01/14 07:31:48;;;;;;;;;;;3.00;60.90;;;;;;5075139;28;19936;-72
2022/01/14 07:34:28;;;;;;;;;;;3.00;60.90;;;;;;5090525;28;19915;-72
2022/01/14 07:37:07;;;;;;;;;;;3.00;60.90;;;;;;5070469;28;19952;-72
2022/01/14 07:39:47;;;;;;;;;;;3.10;61.00;;;;;;5068983;28;19955;-72
2022/01/14 07:42:26;;;;;;;;;;;3.10;61.00;;;;;;5074662;28;19931;-73
2022/01/14 07:45:05;;;;;;;;;;;3.10;60.90;;;;;;5074501;28;19943;-72
2022/01/14 07:47:36;;;;;;;;;;;3.20;61.00;;;;;;5074235;28;19924;-72
2022/01/14 07:50:16;;;;;;;;;;;3.20;60.90;;;;;;5056698;28;19911;-72
2022/01/14 07:52:55;;;;;;;;;;;3.20;60.90;;;;;;5074627;28;20348;-73
2022/01/14 07:55:35;;;;;;;;;;;3.30;61.00;;;;;;5055287;28;19918;-72
2022/01/14 07:58:14;;;;;;;;;;;3.30;61.00;;;;;;5074009;28;19909;-72
2022/01/14 08:00:50;;;;;;;;;;;3.30;60.90;;;;;;5073272;28;19917;-72
2022/01/14 08:03:29;;;;;;;;;;;3.40;61.00;;;;;;5074708;28;19908;-72
2022/01/14 08:06:09;;;;;;;;;;;3.50;61.10;;;;;;5054240;28;19923;-73
2022/01/14 08:08:48;;;;;;;;;;;3.50;61.10;;;;;;5054090;28;19988;-72
2022/01/14 08:11:27;;;;;;;;;;;3.60;61.00;;;;;;5035252;28;20051;-72
2022/01/14 08:14:07;;;;;;;;;;;3.60;61.00;;;;;;5040490;28;19927;-73
2022/01/14 08:16:46;;;;;;;;;;;3.70;61.00;;;;;;5074349;28;20260;-72
2022/01/14 08:19:26;;;;;;;;;;;3.70;60.90;;;;;;5054950;28;20415;-73
2022/01/14 08:22:00;;;;;;;;;;;3.70;60.80;;;;;;5074093;28;19935;-71
2022/01/14 08:24:32;;;;;;;;;;;3.80;60.80;;;;;;5075958;28;19909;-72
2022/01/14 08:27:11;;;;;;;;;;;3.80;60.70;;;;;;5059901;28;20271;-71
2022/01/14 08:29:51;;;;;;;;;;;3.80;60.60;;;;;;5075367;28;19970;-71
2022/01/14 08:32:16;;;;;;;;;;;3.90;60.50;;;;;;5073442;28;19923;-71
2022/01/14 08:34:47;;;;;;;;;;;3.90;60.40;;;;;;5075108;28;19910;-72
2022/01/14 08:37:27;;;;;;;;;;;3.90;60.40;;;;;;5037147;28;19905;-71
2022/01/14 08:40:06;;;;;;;;;;;4.00;60.30;;;;;;5055000;28;20255;-71
2022/01/14 08:42:32;;;;;;;;;;;4.00;60.30;;;;;;5074812;28;19912;-71
2022/01/14 08:45:12;;;;;;;;;;;4.00;60.20;;;;;;5074030;28;19904;-72
2022/01/14 08:47:38;;;;;;;;;;;4.10;60.30;;;;;;5073702;28;19909;-71
2022/01/14 08:50:15;;;;;;;;;;;4.10;60.30;;;;;;5074130;28;19916;-71
2022/01/14 08:52:43;;;;;;;;;;;4.20;60.20;;;;;;5074515;28;19919;-71
2022/01/14 08:55:22;;;;;;;;;;;4.20;60.10;;;;;;5074248;28;19908;-72
2022/01/14 08:58:02;;;;;;;;;;;4.30;60.00;;;;;;5072910;28;19935;-72
2022/01/14 09:00:41;;;;;;;;;;;4.30;59.90;;;;;;5074110;28;19905;-72
2022/01/14 09:03:10;;;;;;;;;;;4.30;59.90;;;;;;5073580;28;19904;-71
2022/01/14 09:05:49;;;;;;;;;;;4.40;59.90;;;;;;5056066;28;20359;-72
2022/01/14 09:08:15;;;;;;;;;;;4.40;59.90;;;;;;5072847;28;19955;-72
2022/01/14 09:10:54;;;;;;;;;;;4.50;59.90;;;;;;5075017;28;20372;-72
2022/01/14 09:13:30;;;;;;;;;;;4.50;59.80;;;;;;5072843;28;19908;-72
2022/01/14 09:16:10;;;;;;;;;;;4.50;59.70;;;;;;5089401;28;19909;-72
2022/01/14 09:18:36;;;;;;;;;;;4.60;59.70;;;;;;5072682;28;19932;-72
2022/01/14 09:21:17;;;;;;;;;;;4.70;59.70;;;;;;5075098;28;20406;-72
2022/01/14 09:23:52;;;;;;;;;;;4.70;59.60;;;;;;5076332;28;19908;-72
2022/01/14 09:26:18;;;;;;;;;;;4.80;59.50;;;;;;5055490;28;20359;-72
2022/01/14 09:28:44;;;;;;;;;;;4.80;60.00;;;;;;5065403;28;19954;-73
2022/01/14 09:31:09;;;;;;;;;;;4.90;59.50;;;;;;5053625;28;19904;-72
2022/01/14 09:33:37;;;;;;;;;;;4.90;59.40;;;;;;5059486;28;19912;-72
2022/01/14 09:36:04;;;;;;;;;;;5.00;59.30;;;;;;5073417;28;19910;-71
2022/01/14 09:38:44;;;;;;;;;;;5.00;59.20;;;;;;5056101;28;19915;-72
2022/01/14 09:41:09;;;;;;;;;;;5.00;59.10;;;;;;5073633;28;19904;-71
2022/01/14 09:43:39;;;;;;;;;;;5.10;59.20;;;;;;5055665;28;19911;-67
2022/01/14 09:46:18;;;;;;;;;;;5.20;59.20;;;;;;5073159;28;20037;-67
2022/01/14 09:48:46;;;;;;;;;;;5.20;59.10;;;;;;5073752;28;19995;-68
2022/01/14 09:51:17;;;;;;;;;;;5.30;59.00;;;;;;5073620;28;19912;-67
2022/01/14 09:53:43;;;;;;;;;;;5.30;58.90;;;;;;5055721;28;20375;-67
2022/01/14 09:56:19;;;;;;;;;;;5.30;58.80;;;;;;5073842;28;19908;-67
2022/01/14 09:58:58;;;;;;;;;;;5.40;58.70;;;;;;5055374;28;19908;-67
2022/01/14 10:01:36;;;;;;;;;;;5.40;58.70;;;;;;5056155;28;19911;-68
2022/01/14 10:04:12;;;;;;;;;;;5.40;58.60;;;;;;5052857;28;19908;-67
2022/01/14 10:06:45;;;;;;;;;;;5.50;58.60;;;;;;5073808;28;19908;-67
2022/01/14 10:09:23;;;;;;;;;;;5.50;58.70;;;;;;5049852;28;19960;-67
2022/01/14 10:12:04;;;;;;;;;;;5.60;58.80;;;;;;5036662;28;20410;-67
2022/01/14 10:14:43;;;;;;;;;;;5.70;59.40;;;;;;5071525;28;19916;-67
2022/01/14 10:17:23;;;;;;;;;;;5.70;58.70;;;;;;5056696;28;19995;-67
2022/01/14 10:20:02;;;;;;;;;;;5.80;58.70;;;;;;5054294;28;19924;-68
2022/01/14 10:22:29;;;;;;;;;;;5.80;58.50;;;;;;5073396;28;19912;-67
2022/01/14 10:24:59;;;;;;;;;;;5.90;58.50;;;;;;5073498;28;19950;-67
2022/01/14 10:27:38;;;;;;;;;;;5.90;58.30;;;;;;5056050;28;20261;-67
2022/01/14 10:30:35;;;;;;;;;;;5.90;58.20;;;;;;5064828;28;19905;-67
2022/01/14 10:33:15;;;;;;;;;;;6.00;58.20;;;;;;5070202;28;19913;-67
2022/01/14 10:35:54;;;;;;;;;;;6.00;58.10;;;;;;5077364;28;20259;-68
2022/01/14 10:38:34;;;;;;;;;;;6.10;58.10;;;;;;5077815;28;19947;-67
2022/01/14 10:41:14;;;;;;;;;;;6.10;58.00;;;;;;5058537;28;19909;-68
2022/01/14 10:43:40;;;;;;;;;;;6.10;57.90;;;;;;5057963;28;19904;-67
2022/01/14 10:46:16;;;;;;;;;;;6.20;57.80;;;;;;5076914;28;19912;-67
2022/01/14 10:49:02;;;;;;;;;;;6.20;57.80;;;;;;5092629;28;19919;-67
2022/01/14 10:51:39;;;;;;;;;;;6.20;57.70;;;;;;5076529;28;19908;-68
2022/01/14 10:54:19;;;;;;;;;;;6.20;57.60;;;;;;5092679;28;19908;-66
2022/01/14 10:56:53;;;;;;;;;;;6.30;57.70;;;;;;5075580;28;19909;-67
2022/01/14 10:59:31;;;;;;;;;;;6.40;57.70;;;;;;5058221;28;20412;-68
2022/01/14 11:02:25;;;;;;;;;;;6.40;57.60;;;;;;5058441;28;19908;-67
2022/01/14 11:05:06;;;;;;;;;;;6.40;57.40;;;;;;5057491;28;19912;-68
2022/01/14 11:07:46;;;;;;;;;;;6.40;57.20;;;;;;5058435;28;19917;-66
2022/01/14 11:10:43;;;;;;;;;;;6.40;57.10;;;;;;5076246;28;20372;-66
2022/01/14 11:13:15;;;;;;;;;;;6.50;57.10;;;;;;5058486;28;20200;-66
2022/01/14 11:15:55;;;;;;;;;;;6.50;57.00;;;;;;5058216;28;19904;-68
2022/01/14 11:18:30;;;;;;;;;;;6.50;57.00;;;;;;5070534;28;20351;-66
2022/01/14 11:23:51;;;;;;;;;;;6.60;56.90;;;;;;5070011;28;19919;-69
2022/01/14 11:26:30;;;;;;;;;;;6.60;56.90;;;;;;5078425;28;19955;-66
2022/01/14 11:29:08;;;;;;;;;;;6.70;57.00;;;;;;5075672;28;20015;-66
2022/01/14 11:31:40;;;;;;;;;;;6.80;57.00;;;;;;5049660;28;20348;-67
2022/01/14 11:34:33;;;;;;;;;;;6.80;56.90;;;;;;5056547;28;20260;-67
2022/01/14 11:37:00;;;;;;;;;;;6.90;56.80;;;;;;5065756;28;20003;-67
2022/01/14 11:39:32;;;;;;;;;;;7.00;56.80;;;;;;5074867;28;19912;-70
2022/01/14 11:42:12;;;;;;;;;;;7.00;56.70;;;;;;5102486;28;20257;-70
2022/01/14 11:45:00;;;;;;;;;;;7.00;56.50;;;;;;5072711;28;20351;-70
2022/01/14 11:47:45;;;;;;;;;;;7.00;56.10;;;;;;5106797;28;19981;-69
2022/01/14 11:50:40;;;;;;;;;;;7.00;56.00;;;;;;5075756;28;19909;-73
2022/01/14 11:53:30;;;;;;;;;;;7.00;56.00;;;;;;5074257;28;19987;-73
2022/01/14 11:56:04;;;;;;;;;;;7.10;56.10;;;;;;5073972;28;19912;-70
2022/01/14 11:58:44;;;;;;;;;;;7.10;56.10;;;;;;5074666;28;19908;-70
2022/01/14 12:01:34;;;;;;;;;;;7.10;56.00;;;;;;5069579;28;20005;-69
2022/01/14 12:04:10;;;;;;;;;;;7.20;55.90;;;;;;5073120;28;19908;-70
2022/01/14 12:07:13;;;;;;;;;;;7.20;55.70;;;;;;5074359;28;19963;-70
2022/01/14 12:09:57;;;;;;;;;;;7.30;55.80;;;;;;5017757;28;19917;-70
2022/01/14 12:12:34;;;;;;;;;;;7.30;55.70;;;;;;5031616;28;20353;-70
2022/01/14 12:15:10;;;;;;;;;;;7.40;55.60;;;;;;5031951;28;19959;-70
2022/01/14 12:17:44;;;;;;;;;;;7.40;55.50;;;;;;5031702;28;19924;-70
2022/01/14 12:20:24;;;;;;;;;;;7.50;55.40;;;;;;5019370;28;19956;-71
2022/01/14 12:23:19;;;;;;;;;;;7.50;55.20;;;;;;5030933;28;20379;-70
2022/01/14 12:25:56;;;;;;;;;;;7.50;55.10;;;;;;5011690;28;19913;-70
2022/01/14 12:28:35;;;;;;;;;;;7.50;55.00;;;;;;5030155;28;19913;-70
2022/01/14 12:31:14;;;;;;;;;;;7.50;55.00;;;;;;5017584;28;20342;-70
2022/01/14 12:33:51;;;;;;;;;;;7.50;55.00;;;;;;5031325;28;20365;-70
2022/01/14 12:36:31;;;;;;;;;;;7.60;55.00;;;;;;5031228;28;19905;-71
2022/01/14 12:39:07;;;;;;;;;;;7.60;55.00;;;;;;5013878;28;20288;-70
2022/01/14 12:41:44;;;;;;;;;;;7.70;55.00;;;;;;5030912;28;19909;-70
2022/01/14 12:44:35;;;;;;;;;;;7.70;54.90;;;;;;5031790;28;20271;-70
2022/01/14 12:47:09;;;;;;;;;;;7.70;54.90;;;;;;5052046;28;19908;-70
2022/01/14 12:49:51;;;;;;;;;;;7.70;54.80;;;;;;5054237;28;19912;-70
2022/01/14 12:52:38;;;;;;;;;;;7.70;54.80;;;;;;5055677;28;19905;-70
2022/01/14 12:55:15;;;;;;;;;;;7.80;54.80;;;;;;5055268;28;19999;-70
2022/01/14 12:57:48;;;;;;;;;;;7.80;54.70;;;;;;5073083;28;19914;-70
2022/01/14 13:00:20;;;;;;;;;;;7.80;54.70;;;;;;5054787;28;19962;-70
2022/01/14 13:02:45;;;;;;;;;;;7.80;54.70;;;;;;5054834;28;20116;-71
2022/01/14 13:05:13;;;;;;;;;;;7.80;54.60;;;;;;5036846;28;19928;-71
2022/01/14 13:07:39;;;;;;;;;;;7.80;54.50;;;;;;5070808;28;19966;-71
2022/01/14 13:10:08;;;;;;;;;;;7.80;54.50;;;;;;5074799;28;19952;-71
2022/01/14 13:12:39;;;;;;;;;;;7.90;54.60;;;;;;5074485;28;19955;-71
2022/01/14 13:15:07;;;;;;;;;;;7.90;54.60;;;;;;5074952;28;19905;-71
2022/01/14 13:17:38;;;;;;;;;;;7.90;54.50;;;;;;5074534;28;20070;-71
2022/01/14 13:20:08;;;;;;;;;;;7.90;55.00;;;;;;5056638;28;20014;-71
2022/01/14 13:22:37;;;;;;;;;;;7.90;54.20;;;;;;5075508;28;19947;-71
2022/01/14 13:25:15;;;;;;;;;;;7.90;54.30;;;;;;5075816;28;19912;-71
2022/01/14 13:27:45;;;;;;;;;;;7.90;54.30;;;;;;5056543;28;19919;-71
2022/01/14 13:30:49;;;;;;;;;;;7.90;54.20;;;;;;5056494;28;19905;-71
2022/01/14 13:33:20;;;;;;;;;;;7.90;54.20;;;;;;5032881;28;19912;-71
2022/01/14 13:35:47;;;;;;;;;;;8.00;54.30;;;;;;5023718;28;19956;-71
2022/01/14 13:38:19;;;;;;;;;;;7.90;54.20;;;;;;5032367;28;19912;-71
2022/01/14 13:40:46;;;;;;;;;;;8.00;54.20;;;;;;5032287;28;19916;-71
2022/01/14 13:43:22;;;;;;;;;;;8.00;54.20;;;;;;5032094;28;19905;-71
2022/01/14 13:45:52;;;;;;;;;;;8.00;54.10;;;;;;5031921;28;19931;-71
2022/01/14 13:48:23;;;;;;;;;;;8.00;54.10;;;;;;5031837;28;19909;-68
2022/01/14 13:51:01;;;;;;;;;;;8.00;54.10;;;;;;5031547;28;19920;-69
2022/01/14 13:53:35;;;;;;;;;;;8.00;54.10;;;;;;5031824;28;19905;-72
2022/01/14 13:56:04;;;;;;;;;;;8.00;54.10;;;;;;5027632;28;19995;-70
2022/01/14 13:58:43;;;;;;;;;;;8.00;54.10;;;;;;5028123;28;19909;-70
2022/01/14 14:01:22;;;;;;;;;;;8.00;54.00;;;;;;5030781;28;19905;-70
2022/01/14 14:04:03;;;;;;;;;;;8.00;53.90;;;;;;5040690;28;19905;-70
2022/01/14 14:06:49;;;;;;;;;;;7.90;53.80;;;;;;5034306;28;19909;-69
2022/01/14 14:09:33;;;;;;;;;;;7.90;53.80;;;;;;5057644;28;19915;-69
2022/01/14 14:18:06;;;;;;;;;;;7.70;53.60;;;;;;5057314;28;20051;-70
2022/01/14 14:20:46;;;;;;;;;;;7.70;53.80;;;;;;5057357;28;19963;-70
2022/01/14 14:23:28;;;;;;;;;;;7.60;53.60;;;;;;5057586;28;19999;-70
2022/01/14 14:26:14;;;;;;;;;;;7.60;53.80;;;;;;5057374;28;19954;-70
2022/01/14 14:28:53;;;;;;;;;;;7.60;53.80;;;;;;5062947;28;19908;-70
2022/01/14 14:31:31;;;;;;;;;;;7.50;53.70;;;;;;5077341;28;19905;-70
2022/01/14 14:34:05;;;;;;;;;;;7.50;53.90;;;;;;5077465;28;19908;-70
2022/01/14 14:36:44;;;;;;;;;;;7.40;53.90;;;;;;5076875;28;19904;-69
2022/01/14 14:39:26;;;;;;;;;;;7.40;54.00;;;;;;5076821;28;19904;-70
2022/01/14 14:41:57;;;;;;;;;;;7.30;54.00;;;;;;5077191;28;19905;-70
2022/01/14 14:44:33;;;;;;;;;;;7.30;54.10;;;;;;5077113;28;19979;-70
2022/01/14 14:47:13;;;;;;;;;;;7.20;54.10;;;;;;5076585;28;19912;-69
2022/01/14 14:49:52;;;;;;;;;;;7.20;54.20;;;;;;5076593;28;19915;-69
2022/01/14 14:52:31;;;;;;;;;;;7.10;54.20;;;;;;5058127;28;20341;-70
2022/01/14 14:55:12;;;;;;;;;;;7.20;54.30;;;;;;5058126;28;19986;-70
2022/01/14 14:57:40;;;;;;;;;;;7.10;54.40;;;;;;5076547;28;19904;-70
2022/01/14 15:00:19;;;;;;;;;;;7.10;54.50;;;;;;5076624;28;19977;-70
2022/01/14 15:02:59;;;;;;;;;;;7.00;54.50;;;;;;5076314;28;20287;-70
2022/01/14 15:05:39;;;;;;;;;;;7.00;54.60;;;;;;5076442;28;20094;-70
2022/01/14 15:08:07;;;;;;;;;;;7.00;54.70;;;;;;5076387;28;19916;-69
2022/01/14 15:10:47;;;;;;;;;;;6.90;54.80;;;;;;5076455;28;19905;-69
2022/01/14 15:13:26;;;;;;;;;;;6.90;54.80;;;;;;5057719;28;20293;-70
2022/01/14 15:18:37;;;;;;;;;;;6.90;55.00;;;;;;5064976;28;19917;-69
2022/01/14 15:21:16;;;;;;;;;;;6.90;55.00;;;;;;5056181;28;20379;-70
2022/01/14 15:23:55;;;;;;;;;;;6.90;55.10;;;;;;5056207;28;19905;-69
2022/01/14 15:26:26;;;;;;;;;;;6.80;55.00;;;;;;5056009;28;20010;-70
2022/01/14 15:29:06;;;;;;;;;;;6.80;55.00;;;;;;5055798;28;19915;-69
2022/01/14 15:31:45;;;;;;;;;;;6.80;55.10;;;;;;5037337;28;19905;-69
2022/01/14 15:34:25;;;;;;;;;;;6.70;55.20;;;;;;5055776;28;19912;-69
2022/01/14 15:37:04;;;;;;;;;;;6.70;55.40;;;;;;5055721;28;19905;-69
2022/01/14 15:39:44;;;;;;;;;;;6.70;55.50;;;;;;5055648;28;19912;-69
2022/01/14 15:42:23;;;;;;;;;;;6.70;55.50;;;;;;5055663;28;19905;-69
2022/01/14 15:45:02;;;;;;;;;;;6.60;55.70;;;;;;5055530;28;19951;-69
2022/01/14 15:47:42;;;;;;;;;;;6.60;55.70;;;;;;5036467;28;19963;-69
2022/01/14 15:50:21;;;;;;;;;;;6.60;55.80;;;;;;5036962;28;19909;-70
2022/01/14 15:53:01;;;;;;;;;;;6.60;55.90;;;;;;5055561;28;20015;-69
2022/01/14 15:55:40;;;;;;;;;;;6.60;56.00;;;;;;5071744;28;19955;-69